TimeEST,TemperatureF,Dew PointF,Humidity,Sea Level PressureIn,VisibilityMPH,Wind Direction,Wind SpeedMPH,Gust SpeedMPH,PrecipitationIn,Events,Conditions,WindDirDegrees,DateUTC
12:05 AM,26.6,21.2,80,30.05,10.0,WNW,4.6,-,N/A,,Overcast,290,2011-01-27 05:05:00
12:53 AM,26.1,21.0,81,30.07,9.0,West,5.8,-,N/A,,Overcast,270,2011-01-27 05:53:00
1:53 AM,26.1,21.0,81,30.06,9.0,West,5.8,-,N/A,,Overcast,260,2011-01-27 06:53:00
2:53 AM,25.0,19.9,81,30.07,9.0,West,6.9,-,N/A,,Overcast,270,2011-01-27 07:53:00
3:53 AM,25.0,19.9,81,30.05,8.0,West,5.8,-,N/A,,Overcast,260,2011-01-27 08:53:00
4:35 AM,24.8,21.2,86,30.01,8.0,West,3.5,-,N/A,,Overcast,270,2011-01-27 09:35:00
4:53 AM,25.0,21.0,85,30.04,8.0,West,5.8,-,N/A,,Overcast,280,2011-01-27 09:53:00
5:53 AM,25.0,21.0,85,30.03,8.0,SW,6.9,-,N/A,,Overcast,230,2011-01-27 10:53:00
6:53 AM,25.0,21.0,85,30.03,8.0,WSW,9.2,-,N/A,,Overcast,240,2011-01-27 11:53:00
7:53 AM,24.1,19.9,84,30.03,7.0,WSW,8.1,-,N/A,,Overcast,240,2011-01-27 12:53:00
8:53 AM,24.1,21.0,88,30.01,6.0,SW,9.2,-,N/A,,Overcast,220,2011-01-27 13:53:00
9:53 AM,25.0,21.0,85,30.01,6.0,SW,11.5,-,N/A,,Overcast,220,2011-01-27 14:53:00
10:53 AM,26.1,21.9,84,30.00,7.0,SW,10.4,-,N/A,,Overcast,230,2011-01-27 15:53:00
11:53 AM,27.0,23.0,85,29.99,4.0,SW,9.2,-,N/A,,Overcast,230,2011-01-27 16:53:00
12:53 PM,28.0,24.1,85,29.94,5.0,SW,11.5,-,N/A,,Overcast,230,2011-01-27 17:53:00
1:53 PM,30.9,25.0,79,29.88,7.0,South,11.5,17.3,N/A,,Mostly Cloudy,190,2011-01-27 18:53:00
2:09 PM,32.0,24.8,75,29.85,8.0,SW,11.5,-,N/A,,Scattered Clouds,220,2011-01-27 19:09:00
2:53 PM,33.1,25.0,72,29.85,8.0,SW,11.5,17.3,N/A,,Partly Cloudy,220,2011-01-27 19:53:00
3:53 PM,34.0,25.0,70,29.83,10.0,WSW,11.5,-,N/A,,Clear,240,2011-01-27 20:53:00
4:53 PM,34.0,25.0,70,29.82,10.0,SSW,6.9,-,N/A,,Scattered Clouds,210,2011-01-27 21:53:00
5:53 PM,34.0,26.1,73,29.81,9.0,SSW,8.1,-,N/A,,Mostly Cloudy,200,2011-01-27 22:53:00
6:53 PM,33.1,27.0,78,29.82,8.0,SW,6.9,-,N/A,,Overcast,220,2011-01-27 23:53:00
7:21 PM,33.8,28.4,81,29.80,1.8,SW,5.8,-,0.00,Snow,Light Snow,220,2011-01-28 00:21:00
7:31 PM,32.0,28.4,87,29.80,2.0,SSW,4.6,-,0.00,Snow,Light Snow,210,2011-01-28 00:31:00
7:41 PM,32.0,30.2,93,29.79,3.0,South,4.6,-,0.00,Snow,Light Snow,190,2011-01-28 00:41:00
7:53 PM,32.0,30.0,92,29.81,5.0,South,6.9,-,0.00,,Overcast,190,2011-01-28 00:53:00
8:53 PM,33.1,28.9,85,29.80,6.0,SSW,4.6,-,N/A,,Mostly Cloudy,210,2011-01-28 01:53:00
9:53 PM,33.1,28.9,85,29.80,5.0,SW,4.6,-,N/A,,Overcast,220,2011-01-28 02:53:00
10:43 PM,33.8,30.2,87,29.77,4.0,West,4.6,-,0.00,,Overcast,270,2011-01-28 03:43:00
10:53 PM,33.1,30.0,89,29.79,5.0,NW,3.5,-,0.00,,Overcast,310,2011-01-28 03:53:00
11:10 PM,33.8,30.2,87,29.76,2.5,West,4.6,-,0.00,Snow,Light Snow,260,2011-01-28 04:10:00
11:24 PM,33.8,30.2,87,29.77,1.8,WNW,4.6,-,0.00,Snow,Light Snow,290,2011-01-28 04:24:00
11:43 PM,33.8,30.2,87,29.77,0.8,WNW,5.8,-,0.01,Snow,Light Snow,290,2011-01-28 04:43:00
11:53 PM,32.0,30.0,92,29.79,1.2,WNW,9.2,-,0.01,Snow,Light Snow,290,2011-01-28 04:53:00